Time;durP1;ratioP1;P1;durP2;ratioP2;P2;SDS_P1;SDS_P2;PMS_P1;PMS_P2;Temp;Humidity;BMP_temperature;BMP_pressure;BME280_temperature;BME280_humidity;BME280_pressure;Samples;Min_cycle;Max_cycle;Signal;HPM_P1;HPM_P2
2022/08/03 00:00:49;;;;;;;7.05;4.17;;;;;;;18.74;95.43;99191.95;1730365;82;21488;-81
2022/08/03 00:03:15;;;;;;;6.45;4.17;;;;;;;18.74;95.42;99195.95;1730004;82;21064;-80
2022/08/03 00:05:42;;;;;;;6.90;4.47;;;;;;;18.73;95.47;99197.77;1743409;82;21067;-80
2022/08/03 00:08:09;;;;;;;4.25;3.85;;;;;;;18.71;95.42;99202.37;1743452;82;21059;-80
2022/08/03 00:10:37;;;;;;;6.25;3.85;;;;;;;18.74;95.43;99206.60;1743600;82;21111;-81
2022/08/03 00:13:03;;;;;;;4.33;3.92;;;;;;;18.77;95.35;99207.72;1730018;82;21185;-77
2022/08/03 00:15:30;;;;;;;8.28;4.72;;;;;;;18.81;95.38;99210.55;1743360;82;21579;-80
2022/08/03 00:17:56;;;;;;;5.53;4.00;;;;;;;18.81;95.47;99205.67;1729998;82;21021;-78
2022/08/03 00:20:23;;;;;;;8.63;4.58;;;;;;;18.79;95.45;99197.78;1743341;82;21059;-80
2022/08/03 00:22:50;;;;;;;7.97;4.28;;;;;;;18.80;95.47;99194.17;1743671;82;21122;-81
2022/08/03 00:25:17;;;;;;;8.75;4.40;;;;;;;18.76;95.55;99194.01;1743606;82;21750;-82
2022/08/03 00:27:43;;;;;;;5.65;4.60;;;;;;;18.73;95.69;99185.78;1729972;82;21079;-80
2022/08/03 00:30:10;;;;;;;4.60;4.20;;;;;;;18.72;95.73;99185.39;1743348;82;21071;-82
2022/08/03 00:32:37;;;;;;;6.83;4.08;;;;;;;18.73;95.64;99187.11;1730158;82;21076;-80
2022/08/03 00:35:05;;;;;;;6.03;4.25;;;;;;;18.76;95.61;99188.68;1743942;82;20949;-80
2022/08/03 00:37:32;;;;;;;8.13;4.37;;;;;;;18.78;95.55;99189.44;1729987;82;22181;-81
2022/08/03 00:39:58;;;;;;;8.25;4.33;;;;;;;18.79;95.50;99186.28;1743705;82;21167;-82
2022/08/03 00:42:25;;;;;;;4.80;4.22;;;;;;;18.75;95.35;99180.33;1736646;82;21020;-82
2022/08/03 00:44:51;;;;;;;4.15;3.70;;;;;;;18.75;95.33;99179.00;1748070;82;21035;-81
2022/08/03 00:47:18;;;;;;;8.00;3.92;;;;;;;18.78;95.15;99186.78;1748211;82;21106;-80
2022/08/03 00:49:44;;;;;;;8.48;4.33;;;;;;;18.78;94.98;99184.11;1748574;81;21794;-80
2022/08/03 00:52:11;;;;;;;6.10;4.17;;;;;;;18.79;94.85;99184.95;1748352;82;21541;-81
2022/08/03 00:54:37;;;;;;;9.55;4.53;;;;;;;18.79;94.75;99191.13;1744169;81;21163;-82
2022/08/03 00:57:04;;;;;;;4.92;4.25;;;;;;;18.80;94.59;99199.50;1734842;82;21134;-82
2022/08/03 00:59:31;;;;;;;5.78;4.00;;;;;;;18.82;94.55;99193.56;1734541;82;21396;-80
2022/08/03 01:01:58;;;;;;;11.00;4.70;;;;;;;18.81;94.56;99199.88;1735204;82;21492;-80
2022/08/03 01:04:24;;;;;;;4.55;4.10;;;;;;;18.81;94.58;99196.34;1734573;81;21049;-80
2022/08/03 01:07:09;;;;;;;6.30;3.92;;;;;;;18.80;94.53;99194.66;1735210;82;21112;-81
2022/08/03 01:10:06;;;;;;;7.15;4.33;;;;;;;18.81;94.50;99191.88;1708142;82;21045;-81
2022/08/03 01:13:03;;;;;;;4.55;4.12;;;;;;;18.79;94.55;99192.45;1735022;82;21096;-81
2022/08/03 01:15:41;;;;;;;5.75;3.95;;;;;;;18.73;94.62;99189.77;1734854;81;21649;-81
2022/08/03 01:18:28;;;;;;;5.97;3.80;;;;;;;18.73;94.72;99191.59;1735072;82;21004;-80
2022/08/03 01:20:55;;;;;;;5.83;3.98;;;;;;;18.73;94.75;99194.27;1728045;82;21048;-81
2022/08/03 01:23:48;;;;;;;7.70;3.83;;;;;;;18.73;94.80;99190.27;1734752;82;21115;-81
2022/08/03 01:26:37;;;;;;;5.37;4.40;;;;;;;18.72;94.83;99189.88;1734764;82;21051;-81
2022/08/03 01:29:35;;;;;;;8.28;4.05;;;;;;;18.70;95.05;99195.33;1734971;82;21174;-80
2022/08/03 01:32:06;;;;;;;4.75;3.90;;;;;;;18.67;95.17;99196.03;1734877;82;21194;-80
2022/08/03 01:34:37;;;;;;;6.92;3.85;;;;;;;18.67;95.09;99200.03;1734849;82;21055;-81
2022/08/03 01:37:05;;;;;;;6.55;4.15;;;;;;;18.69;95.09;99200.77;1734558;82;20999;-81
2022/08/03 01:39:31;;;;;;;7.60;3.87;;;;;;;18.69;95.15;99202.09;1734512;82;21135;-81
2022/08/03 01:42:04;;;;;;;5.85;4.12;;;;;;;18.68;95.19;99203.08;1734803;82;22230;-80
2022/08/03 01:44:30;;;;;;;8.00;3.62;;;;;;;18.68;95.17;99204.41;1734484;82;21996;-81
2022/08/03 01:47:00;;;;;;;9.78;4.35;;;;;;;18.68;95.23;99201.75;1734842;82;21492;-81
2022/08/03 01:49:29;;;;;;;10.48;4.37;;;;;;;18.66;95.43;99195.20;1734780;82;21020;-81
2022/08/03 01:51:55;;;;;;;4.95;3.90;;;;;;;18.64;95.52;99200.25;1735041;82;21221;-81
2022/08/03 01:54:23;;;;;;;4.83;4.00;;;;;;;18.63;95.57;99206.56;1732107;82;21113;-81
2022/08/03 01:56:50;;;;;;;4.80;4.40;;;;;;;18.60;95.45;99202.30;1701291;83;21068;-81
2022/08/03 01:59:17;;;;;;;4.75;4.05;;;;;;;18.59;95.45;99205.06;1693885;84;21095;-79
2022/08/03 02:01:44;;;;;;;8.63;4.05;;;;;;;18.59;95.36;99205.06;1664307;84;21076;-80
2022/08/03 02:04:11;;;;;;;7.08;4.10;;;;;;;18.58;95.23;99200.23;1697182;83;21128;-81
2022/08/03 02:06:38;;;;;;;6.95;4.03;;;;;;;18.57;95.11;99199.36;1697335;83;21382;-81
2022/08/03 02:09:05;;;;;;;8.28;3.92;;;;;;;18.53;95.01;99187.72;1696525;83;21123;-82
2022/08/03 02:11:31;;;;;;;6.08;4.22;;;;;;;18.50;95.10;99180.80;1696880;83;21092;-80
2022/08/03 02:13:59;;;;;;;7.70;4.42;;;;;;;18.48;95.12;99189.38;1696667;83;21061;-80
2022/08/03 02:16:26;;;;;;;5.53;4.10;;;;;;;18.48;95.05;99190.72;1695297;84;21613;-81
2022/08/03 02:18:52;;;;;;;9.95;4.12;;;;;;;18.53;94.98;99189.90;1696180;84;21181;-81
2022/08/03 02:21:19;;;;;;;7.10;3.80;;;;;;;18.53;94.87;99188.56;1697510;84;21111;-81
2022/08/03 02:23:45;;;;;;;9.30;4.62;;;;;;;18.53;94.81;99191.72;1694870;84;21069;-81
2022/08/03 02:26:14;;;;;;;5.40;3.92;;;;;;;18.52;94.82;99197.51;1695168;84;21081;-80
2022/08/03 02:28:43;;;;;;;8.08;4.33;;;;;;;18.52;94.83;99197.51;1697154;84;21063;-80
2022/08/03 02:31:16;;;;;;;9.30;4.17;;;;;;;18.53;94.83;99201.05;1696622;83;21113;-81
2022/08/03 02:33:46;;;;;;;8.95;4.62;;;;;;;18.51;94.88;99199.82;1695880;83;21131;-81
2022/08/03 02:36:12;;;;;;;12.63;4.67;;;;;;;18.46;95.00;99207.30;1696595;83;20999;-81
2022/08/03 02:38:42;;;;;;;9.78;4.50;;;;;;;18.43;94.98;99202.19;1696694;84;21305;-79
2022/08/03 02:41:15;;;;;;;7.08;4.67;;;;;;;18.45;95.03;99201.59;1695081;84;21124;-81
2022/08/03 02:43:44;;;;;;;6.70;4.83;;;;;;;18.44;95.03;99199.91;1693150;83;21152;-81
2022/08/03 02:46:12;;;;;;;8.15;4.70;;;;;;;18.45;95.03;99204.25;1685702;84;21081;-81
2022/08/03 02:48:39;;;;;;;7.55;4.45;;;;;;;18.46;94.96;99204.64;1686040;85;21303;-80
2022/08/03 02:51:05;;;;;;;11.30;4.60;;;;;;;18.48;94.97;99201.37;1664047;84;21619;-82
2022/08/03 02:53:32;;;;;;;9.10;4.95;;;;;;;18.50;94.95;99203.44;1686171;85;21147;-81
2022/08/03 02:55:58;;;;;;;13.78;6.20;;;;;;;18.51;94.92;99214.48;1706962;83;21121;-82
2022/08/03 02:58:25;;;;;;;9.08;5.37;;;;;;;18.52;94.86;99211.32;1721071;83;20962;-80
2022/08/03 03:00:51;;;;;;;6.30;4.53;;;;;;;18.52;94.79;99203.33;1721798;83;21065;-80
2022/08/03 03:03:17;;;;;;;11.22;4.83;;;;;;;18.54;94.79;99207.59;1721501;83;21081;-79
2022/08/03 03:05:44;;;;;;;6.78;4.85;;;;;;;18.54;94.78;99206.27;1720855;83;21002;-82
2022/08/03 03:08:13;;;;;;;7.40;5.60;;;;;;;18.55;94.78;99200.45;1720915;83;21551;-81
2022/08/03 03:10:40;;;;;;;8.30;4.70;;;;;;;18.54;94.66;99203.60;1720596;83;21037;-82
2022/08/03 03:13:06;;;;;;;8.15;4.28;;;;;;;18.56;94.60;99203.00;1721417;83;21033;-80
2022/08/03 03:15:34;;;;;;;6.58;4.87;;;;;;;18.61;94.45;99201.80;1721527;83;21041;-80
2022/08/03 03:18:01;;;;;;;5.08;4.30;;;;;;;18.63;94.31;99202.08;1648671;83;21061;-81
2022/08/03 03:20:27;;;;;;;8.23;4.42;;;;;;;18.65;94.23;99200.14;1720994;83;21171;-80
2022/08/03 03:22:53;;;;;;;6.30;4.67;;;;;;;18.65;94.16;99204.62;1721939;83;21069;-82
2022/08/03 03:25:20;;;;;;;6.80;4.45;;;;;;;18.64;94.04;99208.24;1721400;83;21073;-81
2022/08/03 03:27:47;;;;;;;9.75;4.90;;;;;;;18.66;94.00;99212.97;1721751;83;21330;-81
2022/08/03 03:30:14;;;;;;;9.20;4.72;;;;;;;18.63;93.98;99217.22;1721534;83;20997;-78
2022/08/03 03:32:40;;;;;;;6.58;4.60;;;;;;;18.61;93.95;99214.67;1721261;83;21496;-81
2022/08/03 03:35:08;;;;;;;6.55;4.47;;;;;;;18.61;93.84;99217.78;1721938;83;21029;-81
2022/08/03 03:37:34;;;;;;;8.33;4.70;;;;;;;18.60;93.76;99216.11;1691823;83;21538;-81
2022/08/03 03:40:02;;;;;;;14.55;5.80;;;;;;;18.57;93.81;99218.00;1721483;83;21101;-81
2022/08/03 03:42:30;;;;;;;7.67;5.35;;;;;;;18.60;93.78;99220.10;1721552;83;21039;-81
2022/08/03 03:44:56;;;;;;;7.17;4.97;;;;;;;18.59;93.77;99223.72;1721388;83;21097;-81
2022/08/03 03:47:22;;;;;;;6.15;4.50;;;;;;;18.61;93.70;99229.78;1721371;83;20990;-81
2022/08/03 03:49:49;;;;;;;10.53;4.90;;;;;;;18.63;93.67;99234.55;1723412;82;21585;-82
2022/08/03 03:52:15;;;;;;;7.20;5.10;;;;;;;18.63;93.75;99228.72;1723390;83;21102;-78
2022/08/03 03:54:43;;;;;;;8.03;5.33;;;;;;;18.63;93.94;99238.54;1722853;83;21094;-81
2022/08/03 03:57:10;;;;;;;6.53;5.25;;;;;;;18.64;94.13;99238.89;1747072;81;21091;-80
2022/08/03 03:59:40;;;;;;;8.65;5.42;;;;;;;18.64;94.07;99238.89;1747053;82;21055;-80
2022/08/03 04:02:08;;;;;;;6.58;5.08;;;;;;;18.66;94.08;99243.62;1748153;82;21126;-80
2022/08/03 04:13:03;;;;;;;7.78;4.37;;;;;;;18.70;93.96;99247.78;1748808;81;28707;-82
2022/08/03 04:15:29;;;;;;;7.50;4.40;;;;;;;18.72;93.82;99245.84;1742994;81;21162;-81
2022/08/03 04:17:57;;;;;;;8.48;4.53;;;;;;;18.72;93.72;99240.52;1743118;82;21078;-81
2022/08/03 04:20:26;;;;;;;5.85;4.33;;;;;;;18.75;93.64;99242.97;1736968;82;21072;-80
2022/08/03 04:22:53;;;;;;;8.20;4.67;;;;;;;18.76;93.59;99247.31;1748435;82;21070;-80
2022/08/03 04:25:20;;;;;;;11.65;4.35;;;;;;;18.76;93.48;99252.64;1747703;82;21059;-81
2022/08/03 04:27:46;;;;;;;7.65;4.47;;;;;;;18.79;93.42;99251.58;1748633;82;21176;-82
2022/08/03 04:30:13;;;;;;;4.60;4.10;;;;;;;18.79;93.34;99255.09;1743068;81;21131;-82
2022/08/03 04:32:40;;;;;;;4.92;3.87;;;;;;;18.79;93.49;99258.25;1747467;82;21555;-81
2022/08/03 04:35:07;;;;;;;7.75;3.72;;;;;;;18.82;93.59;99254.87;1748725;81;21589;-81
2022/08/03 04:37:51;;;;;;;4.62;4.00;;;;;;;18.85;93.72;99252.52;1748272;81;21012;-80
2022/08/03 04:40:23;;;;;;;10.00;4.40;;;;;;;18.88;93.63;99249.14;1747991;82;21027;-80
2022/08/03 04:42:49;;;;;;;8.73;3.75;;;;;;;18.92;93.43;99250.59;1746677;81;21739;-81
2022/08/03 04:45:16;;;;;;;6.83;3.67;;;;;;;18.99;93.22;99253.66;1748568;82;21154;-81
2022/08/03 04:47:42;;;;;;;5.28;3.67;;;;;;;19.04;93.06;99258.67;1748077;82;21884;-82
2022/08/03 04:50:09;;;;;;;4.72;4.08;;;;;;;19.09;93.07;99260.51;1748247;82;21460;-81
2022/08/03 04:52:35;;;;;;;6.60;3.72;;;;;;;19.13;93.04;99257.97;1748685;81;21067;-80
2022/08/03 04:55:02;;;;;;;4.90;3.67;;;;;;;19.19;93.04;99253.52;1748229;81;21008;-80
2022/08/03 04:57:29;;;;;;;4.15;3.37;;;;;;;19.25;92.94;99255.73;1735622;82;21028;-81
2022/08/03 04:59:56;;;;;;;6.42;3.83;;;;;;;19.33;92.89;99254.30;1734737;82;21134;-82
2022/08/03 05:02:23;;;;;;;15.32;3.77;;;;;;;19.37;92.67;99257.13;1734975;82;21091;-81
2022/08/03 05:04:49;;;;;;;7.87;3.72;;;;;;;19.40;92.40;99248.87;1734730;82;21095;-80
2022/08/03 05:07:16;;;;;;;4.95;3.15;;;;;;;19.45;92.12;99258.70;1734957;82;21001;-81
2022/08/03 05:09:43;;;;;;;9.65;3.95;;;;;;;19.48;91.82;99254.48;1734738;82;21025;-80
2022/08/03 05:12:10;;;;;;;4.10;3.62;;;;;;;19.52;91.63;99249.30;1734634;81;21104;-81
2022/08/03 05:14:37;;;;;;;8.80;3.60;;;;;;;19.56;91.57;99258.75;1734782;82;21017;-82
2022/08/03 05:17:05;;;;;;;5.95;4.15;;;;;;;19.60;91.48;99250.90;1734647;82;21146;-81
2022/08/03 05:19:31;;;;;;;6.00;3.45;;;;;;;19.65;91.12;99250.06;1734795;82;21597;-81
2022/08/03 05:21:57;;;;;;;13.53;4.15;;;;;;;19.63;91.11;99255.97;1734916;82;21016;-80
2022/08/03 05:24:24;;;;;;;6.15;4.08;;;;;;;19.63;91.08;99259.98;1734791;82;21799;-81
2022/08/03 05:26:51;;;;;;;7.72;3.72;;;;;;;19.64;91.01;99260.36;1734945;82;21574;-80
2022/08/03 05:29:17;;;;;;;7.28;4.25;;;;;;;19.66;90.86;99260.24;1734667;82;21115;-82
2022/08/03 05:31:44;;;;;;;5.60;4.30;;;;;;;19.66;90.99;99259.75;1734871;82;21389;-81
2022/08/03 05:34:10;;;;;;;4.75;4.28;;;;;;;19.70;91.00;99260.36;1734910;82;21043;-82
2022/08/03 05:36:37;;;;;;;10.18;4.10;;;;;;;19.74;91.03;99265.01;1734664;82;21130;-82
2022/08/03 05:39:03;;;;;;;7.22;3.85;;;;;;;19.79;91.19;99266.87;1734807;82;21017;-81
2022/08/03 05:41:30;;;;;;;12.85;4.33;;;;;;;19.83;91.11;99266.49;1734729;82;21036;-81
2022/08/03 05:43:56;;;;;;;8.00;4.22;;;;;;;19.85;91.11;99265.91;1735143;82;21074;-81
2022/08/03 05:46:23;;;;;;;5.67;4.20;;;;;;;19.83;91.02;99272.33;1734494;81;21095;-81
2022/08/03 05:48:50;;;;;;;5.95;3.80;;;;;;;19.84;91.17;99266.87;1734869;82;21154;-81
2022/08/03 05:51:16;;;;;;;8.20;3.95;;;;;;;19.85;90.80;99269.92;1734778;82;21024;-80
2022/08/03 05:53:43;;;;;;;7.83;3.80;;;;;;;19.84;90.97;99274.04;1734609;82;21558;-80
2022/08/03 05:56:10;;;;;;;12.75;4.70;;;;;;;19.87;91.27;99277.81;1731004;81;21542;-83
2022/08/03 05:58:36;;;;;;;6.90;4.15;;;;;;;19.91;91.41;99277.92;1730087;82;21559;-82
2022/08/03 06:01:02;;;;;;;10.00;4.30;;;;;;;19.96;91.29;99278.42;1743668;82;21148;-82
2022/08/03 06:03:29;;;;;;;5.12;3.77;;;;;;;20.02;91.26;99269.94;1730072;82;21167;-82
2022/08/03 06:05:55;;;;;;;4.62;3.90;;;;;;;20.09;91.24;99282.80;1743515;82;21046;-83
2022/08/03 06:08:22;;;;;;;9.15;4.15;;;;;;;20.20;91.38;99280.15;1743403;82;21059;-81
2022/08/03 06:10:49;;;;;;;10.23;4.42;;;;;;;20.27;91.31;99278.69;1743211;82;21316;-80
2022/08/03 06:13:16;;;;;;;5.58;3.77;;;;;;;20.35;91.17;99280.27;1730220;82;21133;-82
2022/08/03 06:15:42;;;;;;;6.87;4.33;;;;;;;20.43;90.96;99286.36;1729747;82;21040;-81
2022/08/03 06:18:08;;;;;;;7.08;4.00;;;;;;;20.52;90.73;99287.44;1743690;82;21103;-81
2022/08/03 06:20:35;;;;;;;6.83;4.30;;;;;;;20.56;90.11;99274.18;1730238;82;21653;-81
2022/08/03 06:23:01;;;;;;;6.83;4.22;;;;;;;20.59;89.65;99276.62;1743350;82;21070;-79
2022/08/03 06:25:29;;;;;;;8.55;4.35;;;;;;;20.67;89.19;99276.89;1743379;82;21164;-82
2022/08/03 06:27:56;;;;;;;6.40;4.40;;;;;;;20.78;89.24;99279.55;1743823;82;21074;-81
2022/08/03 06:30:22;;;;;;;10.03;4.35;;;;;;;20.89;89.03;99281.34;1730181;82;21080;-81
2022/08/03 06:32:50;;;;;;;8.63;3.72;;;;;;;20.98;88.78;99275.75;1744077;82;21119;-81
2022/08/03 06:35:16;;;;;;;12.25;4.30;;;;;;;21.05;87.92;99284.97;1730344;82;21120;-83
2022/08/03 06:37:45;;;;;;;4.37;3.65;;;;;;;21.11;87.14;99278.25;1743538;82;21137;-80
2022/08/03 06:40:14;;;;;;;9.95;4.70;;;;;;;21.17;87.45;99284.45;1730035;82;21001;-81
2022/08/03 06:42:41;;;;;;;6.37;4.40;;;;;;;21.26;87.08;99282.83;1743605;82;21063;-82
2022/08/03 06:45:08;;;;;;;7.70;4.37;;;;;;;21.34;86.76;99281.70;1732027;82;21113;-82
2022/08/03 06:47:37;;;;;;;7.00;4.53;;;;;;;21.44;86.40;99278.63;1737236;82;21055;-81
2022/08/03 06:50:05;;;;;;;7.28;4.25;;;;;;;21.49;85.67;99275.10;1736859;82;21122;-80
2022/08/03 06:52:32;;;;;;;10.03;4.83;;;;;;;21.54;86.17;99279.23;1736728;82;21001;-80
2022/08/03 06:54:59;;;;;;;13.80;4.60;;;;;;;21.64;86.20;99275.64;1737398;82;21051;-80
2022/08/03 06:57:25;;;;;;;6.60;4.47;;;;;;;21.71;85.05;99275.97;1739397;82;21150;-80
2022/08/03 06:59:52;;;;;;;5.65;4.47;;;;;;;21.77;84.71;99274.12;1735341;82;21106;-80
2022/08/03 07:02:19;;;;;;;14.70;4.87;;;;;;;21.79;84.06;99278.02;1735738;82;21129;-80
2022/08/03 07:04:47;;;;;;;7.08;4.50;;;;;;;21.77;83.86;99278.14;1735079;82;21060;-80
2022/08/03 07:07:13;;;;;;;8.08;4.15;;;;;;;21.81;84.48;99284.92;1735062;81;21567;-82
2022/08/03 07:09:40;;;;;;;5.78;3.92;;;;;;;21.96;85.11;99287.28;1735637;81;21773;-82
2022/08/03 07:12:07;;;;;;;10.70;4.30;;;;;;;22.12;84.90;99284.95;1735334;81;21119;-82
2022/08/03 07:14:33;;;;;;;11.88;3.90;;;;;;;22.28;84.52;99284.98;1735852;82;21133;-80
2022/08/03 07:17:00;;;;;;;8.93;4.03;;;;;;;22.46;84.27;99290.11;1735443;82;21016;-80
2022/08/03 07:19:26;;;;;;;6.40;3.70;;;;;;;22.55;82.68;99289.78;1735233;82;21032;-78
2022/08/03 07:21:53;;;;;;;5.33;4.20;;;;;;;22.62;82.15;99290.44;1735667;81;21008;-80
2022/08/03 07:24:20;;;;;;;7.95;4.10;;;;;;;22.67;81.74;99294.05;1735570;82;21086;-80
2022/08/03 07:26:46;;;;;;;8.83;4.42;;;;;;;22.75;81.71;99289.36;1735336;82;21121;-81
2022/08/03 07:29:13;;;;;;;5.90;4.40;;;;;;;22.82;81.15;99297.20;1736057;81;21142;-80
2022/08/03 07:31:41;;;;;;;4.55;3.87;;;;;;;22.90;80.38;99296.03;1735224;82;32520;-81
2022/08/03 07:34:07;;;;;;;9.83;3.98;;;;;;;22.97;80.56;99301.20;1735317;82;21072;-80
2022/08/03 07:36:34;;;;;;;5.78;4.12;;;;;;;23.05;79.60;99295.62;1735148;82;21004;-81
2022/08/03 07:39:00;;;;;;;6.62;4.28;;;;;;;23.10;79.70;99293.41;1735248;82;21081;-80
2022/08/03 07:41:26;;;;;;;7.85;4.53;;;;;;;23.14;79.71;99295.67;1735424;81;21060;-83
2022/08/03 07:43:53;;;;;;;13.20;4.50;;;;;;;23.20;78.93;99299.66;1735599;82;21135;-82
2022/08/03 07:46:19;;;;;;;9.08;4.30;;;;;;;23.24;77.66;99305.09;1735554;81;21131;-82
2022/08/03 07:48:46;;;;;;;6.95;4.58;;;;;;;23.15;77.93;99310.81;1735160;82;21020;-81
2022/08/03 07:51:12;;;;;;;7.53;4.30;;;;;;;22.99;77.97;99311.30;1735211;82;21131;-81
2022/08/03 07:53:39;;;;;;;7.80;4.35;;;;;;;22.86;77.58;99313.88;1721955;82;21005;-80
2022/08/03 07:56:05;;;;;;;8.08;4.12;;;;;;;22.79;78.44;99318.94;1710317;83;21096;-82
2022/08/03 07:58:34;;;;;;;6.65;4.10;;;;;;;22.82;79.56;99320.01;1747912;81;21177;-81
2022/08/03 08:01:01;;;;;;;11.03;4.47;;;;;;;22.95;79.41;99321.95;1727488;82;21026;-82
2022/08/03 08:03:27;;;;;;;6.28;4.03;;;;;;;23.00;78.89;99322.39;1736317;82;21075;-81
2022/08/03 08:05:54;;;;;;;8.18;4.42;;;;;;;23.12;78.95;99329.03;1737452;82;21515;-81
2022/08/03 08:08:20;;;;;;;6.75;4.03;;;;;;;23.28;78.63;99322.60;1748523;82;21502;-80
2022/08/03 08:10:47;;;;;;;13.22;4.92;;;;;;;23.42;77.87;99320.02;1738422;81;21653;-81
2022/08/03 08:13:13;;;;;;;7.72;4.12;;;;;;;23.59;78.58;99323.84;1748107;82;21121;-82
2022/08/03 08:15:40;;;;;;;7.33;4.30;;;;;;;23.79;77.21;99323.81;1735729;82;21225;-80
2022/08/03 08:18:06;;;;;;;7.65;4.65;;;;;;;23.91;75.87;99320.04;1747900;82;21035;-81
2022/08/03 08:20:34;;;;;;;6.72;4.40;;;;;;;24.04;75.57;99324.62;1737548;82;21048;-81
2022/08/03 08:23:03;;;;;;;4.60;4.20;;;;;;;24.18;75.30;99324.66;1747890;82;21062;-80
2022/08/03 08:25:31;;;;;;;7.22;4.08;;;;;;;24.30;74.48;99323.47;1748559;81;21106;-81
2022/08/03 08:28:00;;;;;;;9.33;4.58;;;;;;;24.37;73.25;99326.43;1749071;81;21762;-80
2022/08/03 08:30:26;;;;;;;8.85;4.12;;;;;;;24.45;74.12;99329.74;1737383;82;21099;-80
2022/08/03 08:32:52;;;;;;;5.50;4.10;;;;;;;24.57;74.34;99326.41;1747870;82;21122;-81
2022/08/03 08:35:19;;;;;;;8.55;4.08;;;;;;;24.65;72.64;99323.83;1737142;82;21019;-80
2022/08/03 08:37:46;;;;;;;7.28;4.12;;;;;;;24.68;72.06;99323.53;1747513;82;20956;-83
2022/08/03 08:40:12;;;;;;;11.15;4.55;;;;;;;24.71;72.88;99323.21;1737524;81;21066;-81
2022/08/03 08:42:40;;;;;;;10.15;4.50;;;;;;;24.77;71.67;99323.97;1736230;82;21072;-81
2022/08/03 08:45:08;;;;;;;10.50;4.62;;;;;;;24.83;71.75;99327.42;1745315;82;21024;-80
2022/08/03 08:47:40;;;;;;;9.13;4.80;;;;;;;24.96;71.52;99323.52;1748629;82;21015;-79
2022/08/03 08:50:08;;;;;;;4.87;4.30;;;;;;;25.12;71.60;99326.41;1747837;82;21569;-80
2022/08/03 08:52:34;;;;;;;10.53;4.37;;;;;;;25.27;70.26;99325.42;1748659;81;21090;-82
2022/08/03 08:55:07;;;;;;;5.97;4.35;;;;;;;25.39;69.85;99330.09;1749072;81;21019;-81
2022/08/03 08:57:37;;;;;;;7.80;4.30;;;;;;;25.48;69.79;99326.46;1748310;81;20992;-82
2022/08/03 09:00:10;;;;;;;10.98;4.80;;;;;;;25.62;69.58;99330.48;1747306;81;21110;-80
2022/08/03 09:02:37;;;;;;;12.20;4.58;;;;;;;25.71;68.30;99330.89;1748475;81;21111;-79
2022/08/03 09:05:04;;;;;;;9.45;4.90;;;;;;;25.69;68.31;99334.25;1748251;82;21109;-80
2022/08/03 09:07:31;;;;;;;7.53;4.55;;;;;;;25.66;67.18;99332.37;1748246;81;21055;-81
2022/08/03 09:09:58;;;;;;;9.55;4.67;;;;;;;25.53;67.06;99336.27;1748538;81;21043;-80
2022/08/03 09:12:25;;;;;;;8.58;4.80;;;;;;;25.47;67.30;99337.39;1748407;81;21054;-81
2022/08/03 09:14:52;;;;;;;8.25;4.55;;;;;;;25.42;67.75;99333.83;1748106;81;21609;-80
2022/08/03 09:17:18;;;;;;;10.08;4.20;;;;;;;25.43;67.97;99340.89;1748128;82;21149;-80
2022/08/03 09:19:53;;;;;;;12.28;4.25;;;;;;;25.44;67.89;99338.55;1748181;81;21047;-79
2022/08/03 09:22:20;;;;;;;12.68;4.85;;;;;;;25.52;69.04;99327.86;1745151;81;22211;-83
2022/08/03 09:25:04;;;;;;;8.53;4.30;;;;;;;25.71;68.53;99331.41;1737039;82;21110;-81
2022/08/03 09:27:42;;;;;;;8.30;3.72;;;;;;;25.83;67.94;99330.15;1748289;82;21106;-80
2022/08/03 09:30:14;;;;;;;6.22;4.42;;;;;;;25.99;68.31;99324.56;1748406;81;22247;-83
2022/08/03 09:32:40;;;;;;;7.67;4.58;;;;;;;26.16;67.59;99319.66;1737117;81;21071;-80
2022/08/03 09:35:07;;;;;;;8.48;4.55;;;;;;;26.28;67.35;99327.81;1747980;82;21114;-81
2022/08/03 09:37:34;;;;;;;9.15;4.53;;;;;;;26.40;66.44;99328.91;1748070;82;21625;-80
2022/08/03 09:40:00;;;;;;;5.17;4.25;;;;;;;26.51;65.73;99331.30;1748416;81;21066;-82
2022/08/03 09:42:27;;;;;;;7.40;4.28;;;;;;;26.57;65.44;99338.77;1748045;81;21123;-80
2022/08/03 09:44:53;;;;;;;6.03;4.60;;;;;;;26.56;64.92;99338.92;1748414;81;20988;-82
2022/08/03 09:47:39;;;;;;;5.03;4.45;;;;;;;26.52;64.96;99345.15;1748407;81;21083;-81
2022/08/03 09:50:07;;;;;;;5.75;4.08;;;;;;;26.48;64.64;99345.14;1733815;82;21554;-82
2022/08/03 09:52:37;;;;;;;7.12;4.33;;;;;;;26.41;64.49;99338.66;1737262;82;21519;-80
2022/08/03 09:55:11;;;;;;;6.33;4.70;;;;;;;26.32;64.56;99335.08;1737887;82;21149;-80
2022/08/03 09:57:45;;;;;;;9.15;3.83;;;;;;;26.24;64.34;99338.59;1734879;82;21053;-81
2022/08/03 10:00:13;;;;;;;7.28;4.40;;;;;;;26.10;64.33;99351.28;1727646;82;21543;-80
2022/08/03 10:02:41;;;;;;;22.15;4.95;;;;;;;25.94;65.08;99355.52;1728523;82;21068;-79
2022/08/03 10:05:10;;;;;;;20.37;5.10;;;;;;;25.77;66.93;99364.44;1729524;83;21540;-81
2022/08/03 10:07:47;;;;;;;5.37;4.03;;;;;;;25.58;68.80;99364.94;1728996;82;21638;-79
2022/08/03 10:10:14;;;;;;;6.45;4.55;;;;;;;25.39;69.30;99363.25;1729158;82;21127;-79
2022/08/03 10:12:42;;;;;;;4.10;3.70;;;;;;;25.18;69.79;99361.29;1729076;83;21095;-80
2022/08/03 10:15:09;;;;;;;8.75;5.60;;;;;;;25.01;70.91;99361.59;1729220;83;21000;-79
2022/08/03 10:17:36;;;;;;;7.30;4.70;;;;;;;24.90;71.65;99365.34;1729284;83;21566;-78
2022/08/03 10:20:05;;;;;;;7.28;4.70;;;;;;;24.75;72.27;99368.18;1729444;83;21718;-80
2022/08/03 10:22:35;;;;;;;10.43;4.08;;;;;;;24.58;72.50;99360.36;1729010;83;21151;-81
2022/08/03 10:25:09;;;;;;;7.53;4.20;;;;;;;24.44;73.54;99369.25;1729420;83;21037;-80
2022/08/03 10:27:40;;;;;;;5.75;3.98;;;;;;;24.36;74.06;99362.40;1728993;83;21536;-79
2022/08/03 10:30:09;;;;;;;5.22;4.10;;;;;;;24.33;74.51;99361.84;1729576;83;21609;-80
2022/08/03 10:32:45;;;;;;;6.17;4.25;;;;;;;24.23;74.82;99364.05;1729402;83;21112;-81
2022/08/03 10:35:14;;;;;;;7.05;4.10;;;;;;;24.19;75.28;99361.31;1729140;83;21028;-79
2022/08/03 10:37:43;;;;;;;6.90;4.40;;;;;;;24.14;75.75;99352.83;1729289;83;21083;-80
2022/08/03 10:40:15;;;;;;;4.72;4.12;;;;;;;24.15;76.72;99360.39;1729208;83;21096;-80
2022/08/03 10:42:44;;;;;;;5.03;3.92;;;;;;;24.21;78.75;99353.94;1729194;83;20965;-81
2022/08/03 10:45:23;;;;;;;6.87;4.28;;;;;;;24.38;79.75;99345.62;1729219;82;21124;-80
2022/08/03 10:47:51;;;;;;;4.75;4.15;;;;;;;24.60;78.86;99332.84;1729064;82;21052;-80
2022/08/03 10:50:17;;;;;;;6.47;4.12;;;;;;;24.87;79.48;99336.04;1729140;83;21052;-81
2022/08/03 10:53:02;;;;;;;8.33;4.67;;;;;;;25.18;79.69;99325.81;1730691;82;21619;-79
2022/08/03 10:58:49;;;;;;;8.63;4.33;;;;;;;25.70;77.57;99325.66;1714881;82;21112;-80
2022/08/03 11:01:17;;;;;;;5.40;3.90;;;;;;;25.91;74.23;99315.39;1694928;84;21634;-80
2022/08/03 11:03:58;;;;;;;6.92;4.08;;;;;;;25.92;73.03;99315.75;1694769;84;21061;-80
2022/08/03 11:06:25;;;;;;;7.15;4.58;;;;;;;25.97;72.94;99315.80;1694997;84;21531;-78
2022/08/03 11:09:14;;;;;;;6.35;4.00;;;;;;;26.00;72.55;99319.53;1695030;84;21063;-81
2022/08/03 11:11:45;;;;;;;6.33;4.10;;;;;;;26.05;73.23;99319.39;1695076;84;21094;-79
2022/08/03 11:14:19;;;;;;;8.08;3.75;;;;;;;26.17;72.44;99313.75;1694689;84;21151;-82
2022/08/03 11:16:51;;;;;;;4.58;4.08;;;;;;;26.21;71.92;99310.58;1695027;84;21033;-80
2022/08/03 11:19:22;;;;;;;8.58;3.90;;;;;;;26.30;72.88;99316.87;1673895;84;22188;-79
2022/08/03 11:21:51;;;;;;;5.33;4.08;;;;;;;26.39;70.89;99315.05;1702293;84;21079;-82
2022/08/03 11:24:46;;;;;;;3.98;3.60;;;;;;;26.39;70.56;99314.55;1702312;83;22162;-80
2022/08/03 11:27:24;;;;;;;3.75;3.35;;;;;;;26.48;70.87;99312.77;1702623;83;21579;-80
2022/08/03 11:30:13;;;;;;;4.85;3.60;;;;;;;26.48;67.41;99310.06;1702282;83;21677;-79
2022/08/03 11:32:46;;;;;;;5.58;3.83;;;;;;;26.49;67.98;99298.25;1681085;84;21618;-77
2022/08/03 11:35:21;;;;;;;4.65;3.75;;;;;;;26.67;68.11;99303.09;1702650;83;21084;-82
2022/08/03 11:38:09;;;;;;;4.30;3.47;;;;;;;26.84;66.92;99300.46;1702868;83;21090;-81
2022/08/03 11:40:43;;;;;;;6.35;3.90;;;;;;;27.01;66.75;99291.39;1701366;83;21002;-80
2022/08/03 11:43:34;;;;;;;4.08;3.70;;;;;;;27.23;66.28;99295.84;1702587;83;21531;-79
2022/08/03 11:46:16;;;;;;;5.90;3.80;;;;;;;27.32;64.63;99294.89;1702291;83;21619;-80
2022/08/03 11:48:45;;;;;;;5.03;4.15;;;;;;;27.31;65.00;99293.19;1695534;83;21559;-81
2022/08/03 11:51:26;;;;;;;4.70;4.00;;;;;;;27.45;65.34;99300.30;1697247;83;21314;-80